• Join FlightAware (Why Join?)
  • Login
  • US Flag 
08:36PM EDT


 

Airport Tracker/Info


-or-


 

Live Flight TrackerFlight Track Log ✈ FSR302 ✈ 16-Jan-2013 ✈ KVQQ - KCMI

Flight Track Log - Related Links

Times and Time Zones

All times are in EST time to prevent confusion due to time zone crossing. See the FSR302 flight status page for this flight to view local times or setup timezone preferences in your user account.

Time Position Orientation Groundspeed Altitude Reporting Facility
EST Latitude Longitude Course Direction KTS MPH feet Rate Location/Type
11:26AM 30.2125 -81.8783 257° West 173 199 700  Level Jacksonville Center
11:28AM 30.1942 -81.9697 257° West 234 269 4,600 2,520 Climbing Jacksonville Center
11:29AM 30.2094 -82.0514 282° West 239 275 7,500 3,180 Climbing Jacksonville Center
11:30AM 30.2350 -82.1353 289° West 265 305 11,000 3,120 Climbing Jacksonville Center
11:31AM 30.2731 -82.2358 294° West 302 348 13,800 3,180 Climbing Jacksonville Center
11:32AM 30.3800 -82.3025 332° Northwest 345 397 17,400 3,120 Climbing Jacksonville Center
11:33AM 30.4742 -82.3550 334° Northwest 394 453 20,100 2,460 Climbing Jacksonville Center
11:34AM 30.5850 -82.4147 335° Northwest 417 480 22,400 1,440 Climbing Jacksonville Center
11:35AM 30.6981 -82.4769 335° Northwest 433 498 23,000 720 Climbing Jacksonville Center
11:36AM 30.8172 -82.5442 334° Northwest 453 521 23,900 1,440 Climbing Jacksonville Center
11:37AM 30.9364 -82.6092 335° Northwest 467 537 25,900 1,560 Climbing Jacksonville Center
11:38AM 31.0661 -82.6792 335° Northwest 485 558 27,100 1,440 Climbing Jacksonville Center
11:39AM 31.1894 -82.7492 334° Northwest 490 564 28,800 1,500 Climbing Jacksonville Center
11:40AM 31.3147 -82.8172 335° Northwest 490 564 30,200 1,380 Climbing Jacksonville Center
11:41AM 31.4442 -82.8853 336° Northwest 490 564 31,600 1,260 Climbing Jacksonville Center
11:43AM 31.7636 -83.0692 334° Northwest 489 563 34,700 960 Climbing Atlanta Center
11:44AM 31.8831 -83.1339 335° Northwest 484 557 35,000 360 Climbing Atlanta Center
11:45AM 32.0067 -83.2036 334° Northwest 484 557 35,500 720 Climbing Atlanta Center
11:46AM 32.1283 -83.2711 335° Northwest 484 557 36,500 960 Climbing Atlanta Center
11:47AM 32.2497 -83.3414 334° Northwest 484 557 37,500 960 Climbing Atlanta Center
11:49AM 32.3787 -83.4109 336° Northwest  Level FlightAware Approximate
11:49AM 32.4864 -83.4775 336° Northwest 477 549 39,500  Level Atlanta Center
11:50AM 32.5972 -83.5408 334° Northwest 463 533 40,000 240 Climbing Atlanta Center
11:51AM 32.7122 -83.6042 335° Northwest 451 519 40,000  Level Atlanta Center
11:52AM 32.8231 -83.6706 333° Northwest 451 519 40,000  Level Atlanta Center
11:54AM 32.9584 -83.7256 335° Northwest  Level FlightAware Approximate
11:55AM 33.1575 -83.8628 335° Northwest 445 512 40,000  Level Atlanta Center
11:56AM 33.2703 -83.9269 335° Northwest 445 512 40,000  Level Atlanta Center
11:57AM 33.3808 -83.9917 334° Northwest 445 512 40,000  Level Atlanta Center
11:58AM 33.4917 -84.0589 333° Northwest 445 512 40,000  Level Atlanta Center
11:59AM 33.6022 -84.1211 335° Northwest 445 512 40,000  Level Atlanta Center
12:00PM 33.7147 -84.1886 333° Northwest 445 512 40,000  Level Atlanta Center
12:01PM 33.6603 -84.1410 335° Northwest  Level FlightAware Approximate
12:01PM 33.8275 -84.2514 335° Northwest 445 512 40,000  Level Atlanta Center
12:02PM 33.9422 -84.3142 336° Northwest 445 512 40,000  Level Atlanta Center
12:03PM 34.0547 -84.3822 333° Northwest 445 512 40,000  Level Atlanta Center
12:04PM 34.1631 -84.4531 332° Northwest 445 512 40,000  Level Atlanta Center
12:05PM 34.2714 -84.5164 334° Northwest 435 501 40,000  Level Atlanta Center
12:06PM 34.3858 -84.5850 334° Northwest 442 509 40,000  Level Atlanta Center
12:07PM 34.4981 -84.6536 333° Northwest 447 514 40,000  Level Atlanta Center
12:08PM 34.6125 -84.7253 333° Northwest 447 514 40,000  Level Atlanta Center
12:09PM 34.7186 -84.7919 333° Northwest 442 509 40,000  Level Atlanta Center
12:10PM 34.8289 -84.8586 334° Northwest 435 501 40,000  Level Atlanta Center
12:11PM 34.9369 -84.9256 333° Northwest 435 501 40,000  Level Atlanta Center
12:12PM 35.0469 -84.9928 333° Northwest 435 501 40,000  Level Atlanta Center
12:13PM 35.1592 -85.0575 335° Northwest 435 501 40,000  Level Atlanta Center
12:14PM 35.2669 -85.1250 333° Northwest 435 501 40,000  Level Atlanta Center
12:16PM 35.4683 -85.2475 334° Northwest 421 484 40,000  Level Indianapolis Center
12:17PM 35.5789 -85.3169 333° Northwest 441 507 40,000  Level Indianapolis Center
12:18PM 35.6889 -85.3847 333° Northwest 439 505 40,000  Level Indianapolis Center
12:19PM 35.7989 -85.4533 333° Northwest 438 504 40,000  Level Indianapolis Center
12:20PM 35.9292 -85.5353 333° Northwest 437 503 40,000  Level Memphis Center
12:21PM 36.0383 -85.6058 332° Northwest 442 509 40,000  Level Memphis Center
12:22PM 36.1472 -85.6739 333° Northwest 442 509 40,000  Level Memphis Center
12:23PM 36.2583 -85.7447 333° Northwest 442 509 40,000  Level Memphis Center
12:24PM 36.3478 -85.7989 334° Northwest 442 509 40,000  Level Memphis Center
12:25PM 36.4781 -85.8794 334° Northwest 442 509 40,000  Level Memphis Center
12:26PM 36.5825 -85.9486 332° Northwest 442 509 40,000  Level Memphis Center
12:27PM 36.6911 -86.0150 334° Northwest 436 502 40,000  Level Memphis Center
12:28PM 36.8000 -86.0869 332° Northwest 436 502 40,000  Level Memphis Center
12:30PM 37.0247 -86.2311 333° Northwest 423 487 40,000  Level Indianapolis Center
12:31PM 37.1303 -86.2997 333° Northwest 423 487 40,000  Level Indianapolis Center
12:33PM 37.2372 -86.3678 333° Northwest 426 490 40,000  Level Indianapolis Center
12:34PM 37.3431 -86.4361 333° Northwest 425 489 40,000  Level Indianapolis Center
12:35PM 37.4483 -86.5058 332° Northwest 424 488 40,000  Level Indianapolis Center
12:36PM 37.5628 -86.5803 333° Northwest 428 493 40,000  Level Indianapolis Center
12:37PM 37.6706 -86.6519 332° Northwest 432 497 40,000  Level Indianapolis Center
12:38PM 37.7758 -86.7225 332° Northwest 427 491 40,000  Level Indianapolis Center
12:39PM 37.8789 -86.7925 332° Northwest 422 486 40,000 -600 Level Indianapolis Center
12:40PM 37.9811 -86.8606 332° Northwest 414 476 38,800 -1,140 Descending Indianapolis Center
12:41PM 38.0867 -86.9311 332° Northwest 424 488 37,700 -960 Descending Indianapolis Center
12:42PM 38.1994 -87.0058 332° Northwest 451 519 36,900 -1,260 Descending Indianapolis Center
12:43PM 38.3278 -87.0922 332° Northwest 452 520 35,200 -1,620 Descending Indianapolis Center
12:44PM 38.4369 -87.1661 332° Northwest 460 529 33,700 -1,860 Descending Indianapolis Center
12:45PM 38.5522 -87.2442 332° Northwest 466 536 31,500 -2,340 Descending Indianapolis Center
12:46PM 38.6675 -87.3228 332° Northwest 467 537 29,000 -2,400 Descending Indianapolis Center
12:47PM 38.7728 -87.3947 332° Northwest 426 490 26,700 -2,160 Descending Indianapolis Center
12:48PM 38.8744 -87.4642 332° Northwest 414 476 24,600 -2,040 Descending Indianapolis Center
12:49PM 38.9714 -87.5300 332° Northwest 397 457 22,600 -2,220 Descending Indianapolis Center
12:50PM 39.0911 -87.6131 332° Northwest 405 466 20,100 -2,220 Descending Indianapolis Center
12:51PM 39.1811 -87.6772 331° Northwest 378 435 18,100 -1,920 Descending Indianapolis Center
12:52PM 39.2731 -87.7383 333° Northwest 375 432 16,200 -1,560 Descending Indianapolis Center
12:53PM 39.3622 -87.8006 332° Northwest 367 422 15,000 -600 Descending Indianapolis Center
12:54PM 39.4389 -87.8536 332° Northwest 353 406 15,000  Level Indianapolis Center
12:55PM 39.5381 -87.9239 331° Northwest 345 397 15,000  Level Indianapolis Center
12:56PM 39.6258 -87.9847 332° Northwest 350 403 15,000 -900 Level Indianapolis Center
12:57PM 39.7067 -88.0406 332° Northwest 331 381 13,200 -2,040 Descending Indianapolis Center
12:58PM 39.7753 -88.0903 331° Northwest 289 333 10,900 -2,400 Descending Indianapolis Center
12:59PM 39.8486 -88.0656 15° North 287 330 8,300 -2,880 Descending Indianapolis Center
01:00PM 39.8819 -88.0453 25° Northeast 279 321 6,500 -1,920 Descending Chicago Center
01:01PM 39.9539 -88.0083 21° North 270 311 5,400 -1,080 Descending Chicago Center
01:03PM 40.0313 -88.2539 333° Northwest  Level Estimated
01:10PM 40.0333 -88.2667 333° Northwest  Level FlightAware Approximate
01:11PM 40.0388 -88.2778 333° Northwest  Level Estimated
01:12PM 40.0388 -88.2778 333° Northwest  Level Estimated
01:13PM 40.0388 -88.2778 333° Northwest  Level Estimated